Time;durP1;ratioP1;P1;durP2;ratioP2;P2;SDS_P1;SDS_P2;PMS_P1;PMS_P2;Temp;Humidity;BMP_temperature;BMP_pressure;BME280_temperature;BME280_humidity;BME280_pressure;Samples;Min_cycle;Max_cycle;Signal;HPM_P1;HPM_P2
2023/10/07 00:02:13;;;;;;;13.63;6.25;;;;;;;13.41;77.03;97283.28;5095133;28;20511;-65
2023/10/07 00:04:40;;;;;;;9.30;6.13;;;;;;;13.35;77.23;97288.75;5094817;28;20048;-62
2023/10/07 00:07:10;;;;;;;12.60;5.78;;;;;;;13.26;78.09;97289.94;5094904;28;20555;-60
2023/10/07 00:09:41;;;;;;;15.60;5.90;;;;;;;13.16;79.12;97284.19;5094932;28;20079;-64
2023/10/07 00:12:13;;;;;;;9.35;5.35;;;;;;;13.06;79.38;97286.28;5094794;28;20044;-64
2023/10/07 00:14:40;;;;;;;15.43;6.13;;;;;;;12.97;79.91;97281.34;5094867;28;20043;-62
2023/10/07 00:17:12;;;;;;;9.82;5.60;;;;;;;12.90;80.90;97283.34;5094853;28;20048;-65
2023/10/07 00:19:41;;;;;;;11.63;6.15;;;;;;;12.83;82.04;97276.59;5094546;28;20055;-61
2023/10/07 00:22:13;;;;;;;11.50;6.53;;;;;;;12.82;83.05;97273.13;5094636;28;20048;-63
2023/10/07 00:24:43;;;;;;;15.32;6.53;;;;;;;12.81;84.16;97278.41;5094895;28;20507;-62
2023/10/07 00:27:25;;;;;;;12.90;6.93;;;;;;;12.75;84.70;97275.13;5094548;28;20410;-64
2023/10/07 00:29:54;;;;;;;17.15;7.45;;;;;;;12.80;86.74;97266.22;5094438;28;20071;-62
2023/10/07 00:32:27;;;;;;;11.57;6.40;;;;;;;12.72;86.61;97275.22;5094529;28;20044;-63
2023/10/07 00:34:55;;;;;;;12.27;6.70;;;;;;;12.70;85.96;97273.56;5094499;28;20079;-61
2023/10/07 00:37:24;;;;;;;9.32;6.32;;;;;;;12.70;86.05;97278.81;5094415;28;20101;-63
2023/10/07 00:39:54;;;;;;;11.32;6.25;;;;;;;12.72;85.06;97277.84;5094278;28;20603;-63
2023/10/07 00:42:22;;;;;;;13.52;6.90;;;;;;;12.76;85.77;97273.31;5094265;28;20052;-65
2023/10/07 00:44:53;;;;;;;19.65;6.55;;;;;;;12.78;85.33;97282.03;5094186;28;20052;-62
2023/10/07 00:47:21;;;;;;;13.23;6.18;;;;;;;12.72;84.82;97272.59;5093733;28;20509;-65
2023/10/07 00:49:54;;;;;;;9.68;6.13;;;;;;;12.74;84.26;97286.50;5094060;28;20080;-61
2023/10/07 00:52:29;;;;;;;8.38;5.93;;;;;;;12.71;83.26;97281.41;5094069;28;20052;-62
2023/10/07 00:55:08;;;;;;;13.70;5.95;;;;;;;12.73;82.81;97279.56;5094036;28;20044;-62
2023/10/07 00:57:37;;;;;;;15.25;5.30;;;;;;;12.73;81.50;97271.69;5094024;28;20093;-65
2023/10/07 01:00:30;;;;;;;11.35;5.60;;;;;;;12.76;80.70;97265.44;5094092;28;20055;-64
2023/10/07 01:03:12;;;;;;;9.32;5.93;;;;;;;12.72;80.34;97264.72;5093589;28;20078;-65
2023/10/07 01:05:44;;;;;;;9.02;5.20;;;;;;;12.70;79.58;97268.31;5093838;28;20055;-62
2023/10/07 01:08:13;;;;;;;11.32;5.30;;;;;;;12.69;78.46;97272.69;5093779;28;20506;-63
2023/10/07 01:10:53;;;;;;;7.43;5.53;;;;;;;12.67;78.30;97266.63;5093692;28;20493;-64
2023/10/07 01:13:29;;;;;;;;;;;;;;;12.64;78.35;97262.34;5094301;28;20497;-65
2023/10/07 01:15:58;;;;;;;10.07;4.90;;;;;;;12.61;78.04;97259.84;5093780;28;20011;-64
2023/10/07 01:18:27;;;;;;;9.63;4.93;;;;;;;12.57;77.32;97265.25;5093568;28;20052;-62
2023/10/07 01:21:11;;;;;;;9.88;5.38;;;;;;;12.51;77.02;97261.06;5093626;28;20044;-63
2023/10/07 01:23:44;;;;;;;8.82;5.05;;;;;;;12.48;77.40;97253.28;5093616;28;20088;-65
2023/10/07 01:26:16;;;;;;;9.63;5.35;;;;;;;12.46;77.19;97255.13;5093468;28;20551;-64
2023/10/07 01:28:44;;;;;;;9.25;5.07;;;;;;;12.43;76.89;97247.38;5093524;28;20043;-65
2023/10/07 01:31:12;;;;;;;11.88;6.07;;;;;;;12.43;77.54;97250.00;5093528;28;20050;-64
2023/10/07 01:33:42;;;;;;;9.20;5.70;;;;;;;12.43;77.54;97250.81;5093484;28;20143;-65
2023/10/07 01:36:16;;;;;;;9.02;5.47;;;;;;;12.42;77.29;97249.13;5093636;28;20080;-62
2023/10/07 01:38:48;;;;;;;7.07;4.78;;;;;;;12.37;77.25;97243.16;5093291;28;20048;-63
2023/10/07 01:41:19;;;;;;;11.48;4.93;;;;;;;12.34;76.96;97246.75;5093331;28;20056;-65
2023/10/07 01:43:56;;;;;;;;;;;;;;;12.32;77.08;97245.09;5093785;28;20044;-62
2023/10/07 01:46:27;;;;;;;8.68;4.90;;;;;;;12.26;77.15;97243.53;5093272;28;20027;-64
2023/10/07 01:48:57;;;;;;;7.32;4.88;;;;;;;12.24;76.66;97245.34;5093261;28;20055;-65
2023/10/07 01:51:27;;;;;;;10.43;5.40;;;;;;;12.19;76.44;97242.88;5093251;28;20402;-63
2023/10/07 01:54:00;;;;;;;7.40;4.70;;;;;;;12.17;75.82;97241.22;5093226;28;20048;-63
2023/10/07 01:56:29;;;;;;;7.15;5.38;;;;;;;12.04;77.17;97232.88;5093195;28;20076;-65
2023/10/07 01:58:58;;;;;;;10.52;5.75;;;;;;;11.99;77.55;97244.38;5095677;28;20079;-64
2023/10/07 02:01:28;;;;;;;9.43;5.30;;;;;;;11.88;78.52;97242.09;5097444;28;20052;-64
2023/10/07 02:03:57;;;;;;;9.70;4.77;;;;;;;11.79;79.35;97244.13;5097259;28;20126;-64
2023/10/07 02:06:26;;;;;;;10.82;5.45;;;;;;;11.74;79.80;97239.06;5097252;28;20098;-61
2023/10/07 02:08:54;;;;;;;8.68;5.07;;;;;;;11.75;78.26;97238.16;5097376;28;20126;-62
2023/10/07 02:11:28;;;;;;;9.00;5.72;;;;;;;11.73;77.98;97238.19;5097307;28;20048;-65
2023/10/07 02:13:56;;;;;;;9.75;4.88;;;;;;;11.72;77.53;97244.34;5097195;28;20048;-64
2023/10/07 02:16:25;;;;;;;8.63;5.07;;;;;;;11.72;77.97;97251.34;5097065;28;20447;-63
2023/10/07 02:18:52;;;;;;;10.40;5.88;;;;;;;11.69;77.98;97252.31;5096970;28;20406;-63
2023/10/07 02:21:22;;;;;;;11.93;5.60;;;;;;;11.68;78.05;97250.56;5097132;28;20052;-64
2023/10/07 02:23:50;;;;;;;11.13;5.43;;;;;;;11.67;78.23;97243.63;5096751;28;20048;-62
2023/10/07 02:26:19;;;;;;;7.88;5.53;;;;;;;11.66;77.79;97246.31;5096894;28;20044;-65
2023/10/07 02:28:51;;;;;;;9.48;5.53;;;;;;;11.66;77.41;97252.41;5096901;28;20044;-64
2023/10/07 02:31:19;;;;;;;11.35;5.82;;;;;;;11.66;77.32;97239.31;5096998;28;20259;-63
2023/10/07 02:33:51;;;;;;;8.20;4.53;;;;;;;11.67;76.88;97248.00;5096799;28;20501;-62
2023/10/07 02:36:28;;;;;;;7.43;5.40;;;;;;;11.63;76.67;97247.25;5096946;28;20052;-61
2023/10/07 02:38:56;;;;;;;8.52;4.72;;;;;;;11.58;76.48;97246.53;5096489;28;20048;-64
2023/10/07 02:41:25;;;;;;;8.55;5.10;;;;;;;11.57;75.91;97242.19;5096688;28;20056;-65
2023/10/07 02:43:54;;;;;;;11.07;5.60;;;;;;;11.53;75.44;97246.66;5096554;28;20504;-64
2023/10/07 02:46:33;;;;;;;9.80;4.75;;;;;;;11.52;75.47;97242.34;5096472;28;20572;-62
2023/10/07 02:49:09;;;;;;;8.57;5.53;;;;;;;11.49;75.37;97245.91;5096548;28;20070;-64
2023/10/07 02:51:45;;;;;;;7.97;4.45;;;;;;;11.48;75.53;97233.75;5096560;28;20052;-66
2023/10/07 02:54:18;;;;;;;8.60;4.97;;;;;;;11.43;75.52;97235.63;5096489;28;20379;-63
2023/10/07 02:56:54;;;;;;;14.10;5.22;;;;;;;11.40;75.95;97240.09;5096395;28;20185;-62
2023/10/07 02:59:27;;;;;;;11.40;5.00;;;;;;;11.37;76.04;97246.28;5096165;28;20557;-64
2023/10/07 03:02:18;;;;;;;9.90;5.10;;;;;;;11.36;75.45;97247.19;5096210;28;20050;-65
2023/10/07 03:05:06;;;;;;;11.73;4.82;;;;;;;11.31;75.87;97242.09;5096027;28;20056;-64
2023/10/07 03:07:34;;;;;;;6.97;4.80;;;;;;;11.26;76.31;97244.00;5096152;28;20495;-64
2023/10/07 03:10:16;;;;;;;10.60;5.07;;;;;;;11.20;77.19;97239.78;5095618;28;20480;-63
2023/10/07 03:12:47;;;;;;;11.15;5.70;;;;;;;11.17;77.27;97250.34;5096027;28;20043;-64
2023/10/07 03:15:40;;;;;;;11.13;5.22;;;;;;;11.15;77.34;97243.44;5096042;28;20044;-63
2023/10/07 03:18:21;;;;;;;9.57;5.28;;;;;;;11.11;77.20;97247.94;5095944;28;20117;-63
2023/10/07 03:20:59;;;;;;;11.63;5.18;;;;;;;11.06;76.93;97248.06;5095816;28;20056;-64
2023/10/07 03:23:32;;;;;;;14.70;5.07;;;;;;;11.02;77.36;97242.94;5095823;28;20047;-64
2023/10/07 03:26:09;;;;;;;7.93;4.68;;;;;;;11.02;77.04;97248.19;5095811;28;20044;-64
2023/10/07 03:28:43;;;;;;;9.90;6.10;;;;;;;10.99;76.99;97249.13;5095779;28;20413;-65
2023/10/07 03:31:11;;;;;;;9.55;5.35;;;;;;;10.96;77.35;97247.44;5095683;28;20489;-66
2023/10/07 03:33:49;;;;;;;9.70;5.00;;;;;;;10.94;77.20;97244.03;5095560;28;20138;-62
2023/10/07 03:39:26;;;;;;;7.95;5.13;;;;;;;10.74;78.18;97250.66;5053132;28;20049;-63
2023/10/07 03:41:59;;;;;;;12.38;5.50;;;;;;;10.73;78.29;97251.56;5088698;28;20099;-63
2023/10/07 03:44:31;;;;;;;9.30;5.45;;;;;;;10.70;79.15;97246.44;5095421;28;20127;-65
2023/10/07 03:46:59;;;;;;;8.40;5.20;;;;;;;10.66;78.73;97249.16;5095275;28;20066;-63
2023/10/07 03:49:33;;;;;;;10.07;5.65;;;;;;;10.66;78.66;97254.41;5095349;28;20101;-65
2023/10/07 03:52:07;;;;;;;8.70;5.65;;;;;;;10.67;79.66;97251.75;5095252;28;20048;-65
2023/10/07 03:54:35;;;;;;;10.60;5.80;;;;;;;10.67;79.87;97248.25;5095145;28;20051;-64
2023/10/07 03:57:03;;;;;;;8.35;5.38;;;;;;;10.66;79.13;97250.03;5095378;28;20132;-65
2023/10/07 03:59:34;;;;;;;10.57;5.75;;;;;;;10.65;79.15;97258.75;5095070;28;20048;-65
2023/10/07 04:02:12;;;;;;;8.68;5.90;;;;;;;10.59;80.05;97249.31;5095081;28;20134;-63
2023/10/07 04:04:41;;;;;;;13.55;5.60;;;;;;;10.61;80.32;97263.22;5094946;28;20052;-63
2023/10/07 04:07:08;;;;;;;8.30;5.45;;;;;;;10.57;79.99;97260.75;5095070;28;20052;-63
2023/10/07 04:09:36;;;;;;;7.22;4.95;;;;;;;10.53;80.65;97259.94;5094940;28;20134;-64
2023/10/07 04:12:06;;;;;;;7.55;5.30;;;;;;;10.58;80.86;97262.44;5094726;28;20090;-64
2023/10/07 04:14:35;;;;;;;7.85;5.00;;;;;;;10.59;80.24;97261.53;5094950;28;20047;-62
2023/10/07 04:17:11;;;;;;;7.70;4.90;;;;;;;10.62;79.98;97261.44;5094773;28;20044;-64
2023/10/07 04:19:40;;;;;;;9.02;5.68;;;;;;;10.66;79.82;97255.25;5094575;28;20497;-63
2023/10/07 04:22:10;;;;;;;8.57;5.40;;;;;;;10.69;79.67;97251.69;5094052;28;20044;-65
2023/10/07 04:24:44;;;;;;;6.40;4.07;;;;;;;10.70;79.63;97256.03;5094680;28;20055;-65
2023/10/07 04:27:18;;;;;;;8.05;5.10;;;;;;;10.73;79.16;97258.56;5094462;28;20205;-63
2023/10/07 04:29:46;;;;;;;7.70;4.97;;;;;;;10.71;79.04;97252.50;5094648;28;20105;-62
2023/10/07 04:32:20;;;;;;;9.25;5.65;;;;;;;10.71;78.66;97252.50;5094410;28;20106;-63
2023/10/07 04:35:06;;;;;;;11.60;5.20;;;;;;;10.72;79.29;97256.84;5094457;28;20052;-62
2023/10/07 04:37:47;;;;;;;8.75;5.22;;;;;;;10.71;79.40;97260.34;5094389;28;20054;-63
2023/10/07 04:43:25;;;;;;;9.23;4.97;;;;;;;10.67;78.88;97259.59;5094383;28;20117;-63
2023/10/07 04:45:50;;;;;;;8.93;5.25;;;;;;;10.66;79.03;97260.50;5094067;28;20306;-65
2023/10/07 04:48:40;;;;;;;8.07;5.22;;;;;;;10.71;79.41;97266.44;5094183;28;20521;-63
2023/10/07 04:51:12;;;;;;;11.07;4.80;;;;;;;10.73;78.68;97258.56;5094176;28;20048;-65
2023/10/07 04:53:39;;;;;;;9.23;4.68;;;;;;;10.79;79.11;97262.75;5094179;28;20449;-64
2023/10/07 04:56:20;;;;;;;9.25;5.03;;;;;;;10.75;78.93;97264.63;5093916;28;20439;-65
2023/10/07 04:58:47;;;;;;;10.95;4.88;;;;;;;10.81;78.84;97261.81;5094063;28;20410;-64
2023/10/07 05:01:30;;;;;;;9.00;5.07;;;;;;;10.85;79.08;97270.44;5093864;28;20045;-62
2023/10/07 05:04:03;;;;;;;10.20;5.78;;;;;;;10.91;79.35;97270.28;5093638;28;20059;-62
2023/10/07 05:06:34;;;;;;;8.18;4.90;;;;;;;10.94;80.49;97269.34;5093881;28;20493;-65
2023/10/07 05:09:09;;;;;;;12.05;5.53;;;;;;;11.07;80.64;97273.31;5093870;28;20051;-65
2023/10/07 05:11:38;;;;;;;9.95;4.60;;;;;;;11.49;80.25;97268.63;5093675;28;20056;-65
2023/10/07 05:14:07;;;;;;;7.93;4.80;;;;;;;12.30;77.77;97273.13;5093827;28;20192;-63
2023/10/07 05:16:35;;;;;;;6.32;4.72;;;;;;;13.10;72.86;97273.91;5093658;28;20064;-63
2023/10/07 05:19:08;;;;;;;8.35;4.45;;;;;;;13.99;69.00;97275.81;5093798;28;20076;-66
2023/10/07 05:21:37;;;;;;;9.02;4.70;;;;;;;14.84;65.42;97284.63;5093592;28;20052;-63
2023/10/07 05:24:09;;;;;;;9.00;4.53;;;;;;;15.36;62.96;97290.28;5093841;28;20048;-64
2023/10/07 05:26:40;;;;;;;7.93;4.00;;;;;;;15.92;62.29;97290.34;5093493;28;20044;-64
2023/10/07 05:29:12;;;;;;;6.53;4.20;;;;;;;16.77;60.05;97289.78;5093583;28;20401;-64
2023/10/07 05:31:39;;;;;;;6.57;4.05;;;;;;;17.67;57.09;97300.94;5093341;28;20083;-65
2023/10/07 05:34:08;;;;;;;8.73;4.40;;;;;;;18.46;54.18;97302.78;5093364;28;20088;-62
2023/10/07 05:36:38;;;;;;;6.88;3.70;;;;;;;19.24;52.55;97300.88;5093559;28;20044;-63
2023/10/07 05:39:07;;;;;;;6.60;4.20;;;;;;;19.89;50.30;97306.59;5093417;28;20055;-65
2023/10/07 05:41:39;;;;;;;7.13;3.97;;;;;;;20.46;49.46;97311.84;5093360;28;20116;-66
2023/10/07 05:44:07;;;;;;;6.43;3.80;;;;;;;21.11;48.22;97312.00;5093470;28;20040;-64
2023/10/07 05:46:35;;;;;;;5.57;3.97;;;;;;;21.69;46.54;97310.66;5093240;28;20051;-66
2023/10/07 05:49:06;;;;;;;6.38;3.90;;;;;;;22.26;45.01;97311.03;5093172;28;20074;-64
2023/10/07 05:51:36;;;;;;;7.95;4.13;;;;;;;22.90;43.74;97311.66;5093356;28;20135;-64
2023/10/07 05:54:03;;;;;;;6.00;3.80;;;;;;;23.39;42.62;97314.19;5093656;28;20118;-65
2023/10/07 05:56:31;;;;;;;4.72;3.53;;;;;;;23.73;42.51;97324.91;5093087;28;20135;-66
2023/10/07 05:58:58;;;;;;;8.52;4.15;;;;;;;24.17;41.64;97318.75;5093191;28;20044;-63
2023/10/07 06:01:25;;;;;;;7.88;3.60;;;;;;;24.62;41.01;97322.25;5092910;28;20048;-65
2023/10/07 06:03:53;;;;;;;6.35;4.18;;;;;;;25.13;40.42;97324.34;5092937;28;20076;-65
2023/10/07 06:06:29;;;;;;;9.80;4.05;;;;;;;25.71;39.38;97320.28;5093113;28;20067;-63
2023/10/07 06:09:03;;;;;;;8.30;4.20;;;;;;;26.32;38.58;97320.31;5093142;28;20555;-63
2023/10/07 06:11:32;;;;;;;7.03;4.45;;;;;;;26.45;37.54;97318.22;5093062;28;20052;-62
2023/10/07 06:13:59;;;;;;;7.25;4.35;;;;;;;26.06;37.07;97321.66;5093117;28;20471;-63
2023/10/07 06:16:29;;;;;;;7.60;4.65;;;;;;;25.34;38.94;97316.28;5092978;28;20127;-63
2023/10/07 06:18:56;;;;;;;9.38;5.15;;;;;;;24.56;40.60;97315.59;5093024;28;20044;-64
2023/10/07 06:21:27;;;;;;;6.78;4.43;;;;;;;23.91;41.86;97316.38;5092859;28;20052;-63
2023/10/07 06:23:59;;;;;;;13.52;4.68;;;;;;;23.35;43.79;97302.03;5092901;28;20477;-62
2023/10/07 06:26:30;;;;;;;9.40;4.93;;;;;;;22.84;45.26;97293.47;5092948;28;20044;-63
2023/10/07 06:29:05;;;;;;;6.85;4.43;;;;;;;22.52;45.81;97288.75;5092858;28;20048;-63
2023/10/07 06:31:34;;;;;;;9.38;4.57;;;;;;;22.51;46.44;97281.72;5092906;28;20056;-64
2023/10/07 06:34:03;;;;;;;15.93;5.10;;;;;;;23.43;43.99;97288.97;5092927;28;20084;-65
2023/10/07 06:36:32;;;;;;;7.68;4.30;;;;;;;24.80;40.74;97290.44;5092796;28;20052;-65
2023/10/07 06:39:01;;;;;;;6.72;4.40;;;;;;;25.94;36.81;97302.16;5092813;28;20048;-65
2023/10/07 06:41:29;;;;;;;9.23;4.35;;;;;;;26.32;35.52;97299.72;5092750;28;20048;-63
2023/10/07 06:44:02;;;;;;;10.05;4.35;;;;;;;25.98;36.76;97305.44;5093663;28;20044;-63
2023/10/07 06:46:31;;;;;;;6.82;4.43;;;;;;;25.51;39.30;97296.06;5096625;28;20047;-60
2023/10/07 06:49:03;;;;;;;8.85;4.47;;;;;;;25.03;39.01;97297.50;5096487;28;20048;-65
2023/10/07 06:51:30;;;;;;;7.90;4.68;;;;;;;24.93;39.16;97298.31;5096469;28;20067;-63
2023/10/07 06:54:03;;;;;;;11.30;4.57;;;;;;;25.21;38.64;97301.28;5096297;28;20043;-62
2023/10/07 06:56:34;;;;;;;6.63;4.30;;;;;;;24.96;39.88;97303.38;5096376;28;20048;-65
2023/10/07 06:59:02;;;;;;;9.55;4.13;;;;;;;24.63;41.56;97310.59;5096334;28;20047;-62
2023/10/07 07:01:51;;;;;;;8.60;4.97;;;;;;;24.51;42.62;97301.78;5096279;28;20056;-64
2023/10/07 07:04:23;;;;;;;10.85;5.20;;;;;;;25.22;40.94;97302.97;5096064;28;20570;-65
2023/10/07 07:07:05;;;;;;;10.23;4.45;;;;;;;25.90;39.33;97302.56;5096148;28;20048;-65
2023/10/07 07:12:28;;;;;;;10.32;5.40;;;;;;;26.26;38.77;97300.25;5071229;28;20048;-63
2023/10/07 07:15:04;;;;;;;12.90;5.00;;;;;;;26.19;39.72;97296.44;5096060;28;20079;-63
2023/10/07 07:17:36;;;;;;;15.65;5.45;;;;;;;26.03;39.73;97291.63;5096021;28;20044;-66
2023/10/07 07:20:29;;;;;;;10.20;5.07;;;;;;;26.01;40.93;97294.44;5095810;28;20477;-65
2023/10/07 07:22:59;;;;;;;11.38;5.00;;;;;;;25.98;39.90;97292.03;5095926;28;20052;-66
2023/10/07 07:25:36;;;;;;;12.40;4.90;;;;;;;25.74;40.25;97294.06;5095845;28;20044;-63
2023/10/07 07:28:11;;;;;;;9.85;5.35;;;;;;;25.69;40.12;97290.97;5095753;28;20551;-65
2023/10/07 07:30:37;;;;;;;8.65;4.18;;;;;;;25.59;41.09;97290.91;5095713;28;20048;-63
2023/10/07 07:33:11;;;;;;;10.52;4.65;;;;;;;25.66;41.34;97301.94;5095744;28;20436;-66
2023/10/07 07:35:40;;;;;;;9.75;4.65;;;;;;;25.95;39.93;97297.66;5095678;28;20048;-66
2023/10/07 07:41:04;;;;;;;9.50;5.07;;;;;;;25.53;40.96;97290.59;5095525;28;20055;-63
2023/10/07 07:43:33;;;;;;;7.03;4.85;;;;;;;25.69;40.27;97285.59;5095583;28;20048;-66
2023/10/07 07:48:52;;;;;;;8.10;4.22;;;;;;;24.95;40.55;97282.13;5092800;28;20055;-65
2023/10/07 07:51:21;;;;;;;;;;;;;;;24.65;40.72;97279.22;5095787;28;20048;-65
2023/10/07 07:53:50;;;;;;;16.52;4.93;;;;;;;24.20;41.45;97278.44;5095297;28;20001;-64
2023/10/07 07:56:17;;;;;;;11.43;4.50;;;;;;;23.98;42.27;97268.63;5093999;28;20122;-65
2023/10/07 07:58:47;;;;;;;12.50;5.22;;;;;;;23.63;43.77;97280.34;5095213;28;20105;-63
2023/10/07 08:01:18;;;;;;;8.82;4.32;;;;;;;23.31;44.92;97279.22;5095139;28;20055;-65
2023/10/07 08:03:47;;;;;;;8.80;4.68;;;;;;;22.94;45.45;97270.47;5094873;28;20055;-64
2023/10/07 08:06:19;;;;;;;20.98;5.13;;;;;;;22.72;46.16;97271.25;5095081;28;20486;-65
2023/10/07 08:08:48;;;;;;;12.02;4.32;;;;;;;22.61;46.51;97271.25;5095038;28;20044;-61
2023/10/07 08:11:17;;;;;;;10.35;4.57;;;;;;;22.50;46.95;97261.34;5094891;28;20047;-64
2023/10/07 08:13:48;;;;;;;13.20;4.93;;;;;;;22.51;46.65;97268.41;5094949;28;20044;-64
2023/10/07 08:16:18;;;;;;;11.82;4.97;;;;;;;22.59;46.67;97263.34;5094791;28;20040;-65
2023/10/07 08:18:48;;;;;;;13.30;5.20;;;;;;;23.01;46.46;97267.31;5094675;28;20044;-62
2023/10/07 08:21:16;;;;;;;14.32;4.50;;;;;;;23.38;45.18;97263.63;5094717;28;20465;-64
2023/10/07 08:23:46;;;;;;;7.57;4.10;;;;;;;23.78;44.54;97265.75;5094727;28;20547;-62
2023/10/07 08:26:21;;;;;;;8.63;4.25;;;;;;;24.21;42.90;97261.44;5094685;28;20044;-63
2023/10/07 08:29:00;;;;;;;14.10;4.70;;;;;;;24.31;42.18;97242.81;5094607;28;20087;-63
2023/10/07 08:31:38;;;;;;;14.73;5.38;;;;;;;24.17;41.33;97259.16;5094531;28;20047;-61
2023/10/07 08:34:10;;;;;;;11.45;4.82;;;;;;;24.35;42.10;97260.28;5094403;28;20052;-62
2023/10/07 08:36:43;;;;;;;18.45;5.22;;;;;;;24.46;41.08;97248.69;5094509;28;20040;-62
2023/10/07 08:39:11;;;;;;;10.40;5.25;;;;;;;24.66;40.22;97243.50;5094291;28;20052;-62
2023/10/07 08:41:40;;;;;;;8.85;5.28;;;;;;;24.44;39.64;97245.28;5094112;28;20105;-66
2023/10/07 08:44:15;;;;;;;12.10;5.80;;;;;;;24.11;40.94;97244.44;5094377;28;20040;-64
2023/10/07 08:46:48;;;;;;;15.52;5.47;;;;;;;24.18;40.87;97245.66;5094157;28;20098;-64
2023/10/07 08:49:24;;;;;;;12.88;5.03;;;;;;;24.41;40.04;97234.03;5094072;28;20048;-63
2023/10/07 08:51:54;;;;;;;10.80;5.07;;;;;;;24.83;40.16;97228.66;5094141;28;20063;-66
2023/10/07 08:54:27;;;;;;;11.95;5.00;;;;;;;24.43;39.12;97232.91;5093972;28;20045;-63
2023/10/07 08:56:57;;;;;;;12.43;5.03;;;;;;;24.19;40.47;97230.47;5094150;28;20097;-64
2023/10/07 08:59:30;;;;;;;10.02;5.20;;;;;;;24.02;41.27;97224.66;5094002;28;20059;-64
2023/10/07 09:02:00;;;;;;;9.43;4.93;;;;;;;24.31;40.37;97223.22;5093950;28;20048;-61
2023/10/07 09:04:31;;;;;;;9.73;5.25;;;;;;;24.70;40.94;97220.00;5093789;28;20070;-65
2023/10/07 09:06:59;;;;;;;8.48;5.03;;;;;;;24.79;40.42;97218.34;5093551;28;20052;-62
2023/10/07 09:09:33;;;;;;;9.52;5.03;;;;;;;24.88;40.79;97220.28;5093873;28;20044;-63
2023/10/07 09:12:08;;;;;;;7.28;4.75;;;;;;;25.13;39.42;97218.13;5094140;28;20132;-63
2023/10/07 09:14:40;;;;;;;9.43;5.80;;;;;;;25.31;38.53;97212.16;5093725;28;20044;-64
2023/10/07 09:17:09;;;;;;;9.23;4.90;;;;;;;25.21;37.88;97210.28;5093846;28;20067;-63
2023/10/07 09:19:36;;;;;;;12.05;5.40;;;;;;;25.20;38.19;97202.41;5093824;28;20139;-65
2023/10/07 09:22:10;;;;;;;12.75;5.10;;;;;;;25.30;38.16;97202.44;5093517;28;20048;-64
2023/10/07 09:24:45;;;;;;;13.98;5.20;;;;;;;25.44;37.00;97202.06;5093589;28;20063;-64
2023/10/07 09:27:14;;;;;;;14.07;5.10;;;;;;;25.63;36.88;97194.22;5093515;28;20075;-65
2023/10/07 09:29:51;;;;;;;9.50;4.68;;;;;;;25.69;37.28;97196.34;5093508;28;20528;-65
2023/10/07 09:32:22;;;;;;;13.32;5.45;;;;;;;25.60;35.95;97192.69;5093616;28;20048;-64
2023/10/07 09:34:55;;;;;;;8.88;5.03;;;;;;;25.59;38.11;97180.25;5093614;28;20044;-65
2023/10/07 09:37:26;;;;;;;12.25;5.03;;;;;;;25.54;37.76;97183.34;5093512;28;20494;-66
2023/10/07 09:39:55;;;;;;;13.05;5.47;;;;;;;25.76;37.11;97188.63;5093430;28;20048;-62
2023/10/07 09:42:36;;;;;;;11.57;5.10;;;;;;;25.63;37.21;97187.06;5093189;28;20520;-65
2023/10/07 09:45:17;;;;;;;12.10;5.15;;;;;;;25.75;36.34;97179.75;5093214;28;20105;-66
2023/10/07 09:47:46;;;;;;;13.77;5.18;;;;;;;25.85;36.21;97171.69;5093377;28;20169;-65
2023/10/07 09:50:25;;;;;;;9.73;4.57;;;;;;;25.83;35.49;97169.16;5093230;28;20055;-66
2023/10/07 09:53:14;;;;;;;8.63;5.00;;;;;;;25.70;35.82;97164.06;5092867;28;20079;-62
2023/10/07 09:55:58;;;;;;;10.55;5.30;;;;;;;25.54;35.75;97156.56;5093134;28;20098;-62
2023/10/07 09:58:41;;;;;;;18.85;4.32;;;;;;;25.44;36.00;97150.34;5093141;28;20048;-61
2023/10/07 10:01:36;;;;;;;10.70;4.65;;;;;;;25.44;36.12;97143.16;5093054;28;20067;-63
2023/10/07 10:04:23;;;;;;;9.52;4.72;;;;;;;25.69;36.37;97140.97;5092888;28;20056;-65
2023/10/07 10:07:11;;;;;;;15.70;4.50;;;;;;;25.58;35.90;97139.22;5093108;28;20089;-62
2023/10/07 10:10:00;;;;;;;12.02;5.60;;;;;;;25.62;35.09;97137.16;5092993;28;20047;-64
2023/10/07 10:12:48;;;;;;;6.90;4.35;;;;;;;25.53;36.08;97129.91;5092941;28;20080;-62
2023/10/07 10:18:02;;;;;;;9.13;4.95;;;;;;;25.62;35.25;97126.44;5083822;28;20389;-63
2023/10/07 10:20:42;;;;;;;8.55;5.13;;;;;;;25.62;34.89;97113.06;5096339;28;20131;-65
2023/10/07 10:23:18;;;;;;;6.32;4.75;;;;;;;25.29;35.13;97107.91;5097097;28;20485;-64
2023/10/07 10:25:48;;;;;;;9.45;5.68;;;;;;;25.14;35.89;97107.44;5097042;28;20089;-63
2023/10/07 10:28:21;;;;;;;23.23;5.95;;;;;;;25.04;36.58;97096.69;5096958;28;20067;-65
2023/10/07 10:30:53;;;;;;;8.18;5.38;;;;;;;24.97;36.10;97091.06;5096870;28;20052;-65
2023/10/07 10:33:23;;;;;;;8.73;5.10;;;;;;;24.93;36.17;97086.13;5096734;28;20504;-62
2023/10/07 10:35:52;;;;;;;12.60;5.47;;;;;;;24.75;36.63;97070.69;5096799;28;20048;-65
2023/10/07 10:38:19;;;;;;;8.98;5.13;;;;;;;24.80;37.05;97065.75;5096725;28;20055;-64
2023/10/07 10:40:47;;;;;;;10.48;5.28;;;;;;;24.95;36.61;97070.78;5096721;28;20091;-66
2023/10/07 10:43:23;;;;;;;9.32;5.07;;;;;;;24.91;36.24;97075.56;5096633;28;20508;-66
2023/10/07 10:46:04;;;;;;;6.88;5.50;;;;;;;24.77;36.24;97063.34;5096580;28;20040;-65
2023/10/07 10:48:37;;;;;;;14.02;6.07;;;;;;;24.78;35.88;97056.19;5096629;28;20485;-65
2023/10/07 10:51:05;;;;;;;10.88;5.38;;;;;;;24.82;36.74;97055.78;5096554;28;20126;-62
2023/10/07 10:53:34;;;;;;;12.40;5.22;;;;;;;24.68;36.68;97061.50;5096406;28;20047;-65
2023/10/07 10:56:02;;;;;;;11.63;5.53;;;;;;;24.73;36.50;97052.09;5096587;28;20044;-65
2023/10/07 10:58:30;;;;;;;7.20;5.40;;;;;;;24.85;36.63;97049.31;5096374;28;20086;-64
2023/10/07 11:00:57;;;;;;;11.68;5.20;;;;;;;24.88;36.90;97037.50;5096190;28;20409;-65
2023/10/07 11:03:24;;;;;;;13.10;6.00;;;;;;;24.85;36.92;97033.25;5096026;28;20048;-64
2023/10/07 11:05:54;;;;;;;12.07;5.05;;;;;;;24.78;36.81;97030.31;5096255;28;20059;-64
2023/10/07 11:08:24;;;;;;;11.07;5.10;;;;;;;24.85;37.09;97030.59;5096096;28;20139;-63
2023/10/07 11:10:55;;;;;;;10.10;5.40;;;;;;;24.90;36.44;97019.50;5096114;28;20051;-65
2023/10/07 11:13:24;;;;;;;12.23;5.43;;;;;;;24.95;35.83;97011.94;5095989;28;20056;-66
2023/10/07 11:15:58;;;;;;;8.02;4.93;;;;;;;25.07;36.74;97008.13;5095875;28;20482;-63
2023/10/07 11:18:30;;;;;;;21.60;5.97;;;;;;;25.14;36.51;97010.25;5096039;28;20052;-65
2023/10/07 11:21:01;;;;;;;7.03;5.30;;;;;;;25.14;35.93;97011.13;5095933;28;20062;-62
2023/10/07 11:23:28;;;;;;;15.10;5.05;;;;;;;25.14;36.06;97004.91;5095885;28;20401;-65
2023/10/07 11:25:57;;;;;;;13.02;5.63;;;;;;;25.23;35.97;97004.06;5095849;28;20044;-63
2023/10/07 11:28:26;;;;;;;11.70;6.25;;;;;;;25.26;35.58;96997.59;5095758;28;20044;-65
2023/10/07 11:30:55;;;;;;;10.60;5.60;;;;;;;25.29;35.82;97008.03;5095437;28;20048;-63
2023/10/07 11:33:22;;;;;;;11.25;5.97;;;;;;;25.29;35.41;97000.84;5095608;28;20050;-63
2023/10/07 11:36:02;;;;;;;8.90;5.63;;;;;;;25.18;35.14;96991.09;5095643;28;20077;-65
2023/10/07 11:38:30;;;;;;;10.40;6.07;;;;;;;24.94;35.70;96981.66;5095687;28;20059;-65
2023/10/07 11:40:59;;;;;;;11.85;6.03;;;;;;;24.88;35.88;96971.50;5095543;28;20052;-61
2023/10/07 11:43:29;;;;;;;9.63;6.45;;;;;;;24.90;36.16;96971.38;5095463;28;20059;-60
2023/10/07 11:45:56;;;;;;;14.30;6.13;;;;;;;24.96;36.19;96971.63;5095457;28;20112;-63
2023/10/07 11:48:24;;;;;;;11.57;5.63;;;;;;;25.04;36.02;96964.78;5095450;28;20459;-64
2023/10/07 11:50:54;;;;;;;12.65;6.07;;;;;;;24.86;35.88;96970.75;5095283;28;20058;-61
2023/10/07 11:53:25;;;;;;;12.57;5.65;;;;;;;24.90;35.70;96958.00;5095332;28;20052;-65
2023/10/07 11:55:52;;;;;;;;;;;;;;;24.91;34.39;96959.66;5095754;28;20051;-65
2023/10/07 11:58:19;;;;;;;13.65;5.95;;;;;;;24.85;35.64;96958.38;5095302;28;19971;-65
2023/10/07 12:00:48;;;;;;;8.75;5.82;;;;;;;24.94;35.62;96954.03;5095153;28;20048;-64
2023/10/07 12:03:17;;;;;;;15.80;5.82;;;;;;;25.00;34.78;96961.53;5094847;28;20413;-64
2023/10/07 12:05:46;;;;;;;10.60;5.22;;;;;;;25.04;35.81;96956.75;5095140;28;20496;-62
2023/10/07 12:08:14;;;;;;;11.73;6.05;;;;;;;25.15;35.66;96951.25;5095098;28;20139;-63
2023/10/07 12:10:43;;;;;;;9.60;5.75;;;;;;;25.16;35.31;96947.56;5094959;28;20055;-63
2023/10/07 12:13:11;;;;;;;13.25;6.00;;;;;;;25.13;35.40;96947.84;5094906;28;20556;-60